Bangor, ME

10:43 AM EDT on August 27, 2016 (GMT -0400)
Essex St Hill | | Change Station

Elev 208 ft 44.82 °N, 68.77 °W | Updated 25 seconds ago

Partly Cloudy
Partly Cloudy
73.5 °F
Feels Like 77 °F
N
3.0
Wind Variable Wind from NW
Gusts 9.0 mph

Today
High -- | Low -- °F
--% Chance of Precip.
Yesterday
High -- | Low -- °F
Precip. -- in
Pressure 30.16 in
Visibility 10.0 miles
Clouds Few 25000 ft
Heat Index 77 °F
Dew Point 57 °F
Humidity 56%
Rainfall 0.00 in
Snow Depth Not available.
5:52 AM 7:20 PM
Waning Crescent, 24% visible
METAR KBGR 271353Z 34007KT 10SM FEW250 23/13 A3017 RMK AO2 SLP213 T02280133
Pressure 30.16 in
Visibility 10.0 miles
Clouds Few 25000 ft
Heat Index 77 °F
Dew Point 57 °F
Humidity 56%
Rainfall 0.00 in
Snow Depth Not available.
5:52 AM 7:20 PM
Waning Crescent, 24% visible
METAR KBGR 271353Z 34007KT 10SM FEW250 23/13 A3017 RMK AO2 SLP213 T02280133

10-Day Weather Forecast

Almanac

Astronomy

Aug. 27, 2016 Rise Set
Actual Time
Civil Twilight
Nautical Twilight
Astronomical Twilight
Moon
Length of Visible Light
Length of Day
Tomorrow will be .
, % of the Moon is Illuminated

Today's Extremes

State Highs State Lows

Community

WunderPhotos

Upload Photos

1,935,344 photos uploaded!

WunderBlog® & News

Nearby

Air Quality

  Air Quality AQ Index Pollutant
Not available.

Snow Depth

Station Depth Elevation

Earthquake Activity

City Distance Mag. Time & Date
Minimum magnitude displayed is 2.5.

Coastal Water Temperatures

Place Temperature

Stations

Nearby Weather Stations

Station Location Temp. Windchill Dew Point Humidity Wind Precip. Elev Updated Type
                   

Watches & Warnings

There are currently no watches in effect.